sensor_id;sensor_type;location;lat;lon;timestamp;pressure;altitude;pressure_sealevel;temperature;humidity
29941;BME280;16801;53.562;10.038;2023-04-02T00:03:06;101543.78;;;3.06;68.97
29941;BME280;16801;53.562;10.038;2023-04-02T00:06:32;101551.63;;;3.06;68.57
29941;BME280;16801;53.562;10.038;2023-04-02T00:09:58;101551.28;;;2.98;68.71
29941;BME280;16801;53.562;10.038;2023-04-02T00:13:23;101556.19;;;2.90;68.63
29941;BME280;16801;53.562;10.038;2023-04-02T00:16:44;101557.22;;;3.00;68.85
29941;BME280;16801;53.562;10.038;2023-04-02T00:20:07;101561.50;;;3.01;68.57
29941;BME280;16801;53.562;10.038;2023-04-02T00:23:29;101568.28;;;3.04;68.86
29941;BME280;16801;53.562;10.038;2023-04-02T00:26:50;101576.31;;;2.88;69.58
29941;BME280;16801;53.562;10.038;2023-04-02T00:30:12;101583.00;;;2.92;69.08
29941;BME280;16801;53.562;10.038;2023-04-02T00:33:33;101580.72;;;2.73;69.77
29941;BME280;16801;53.562;10.038;2023-04-02T00:36:57;101588.59;;;2.86;70.36
29941;BME280;16801;53.562;10.038;2023-04-02T00:40:21;101591.75;;;2.91;69.79
29941;BME280;16801;53.562;10.038;2023-04-02T00:43:44;101599.56;;;2.91;70.42
29941;BME280;16801;53.562;10.038;2023-04-02T00:47:13;101611.44;;;2.95;70.17
29941;BME280;16801;53.562;10.038;2023-04-02T00:50:39;101609.47;;;2.86;69.57
29941;BME280;16801;53.562;10.038;2023-04-02T00:54:05;101610.94;;;2.90;70.31
29941;BME280;16801;53.562;10.038;2023-04-02T00:57:34;101623.69;;;2.68;70.32
29941;BME280;16801;53.562;10.038;2023-04-02T01:00:57;101624.13;;;2.74;70.94
29941;BME280;16801;53.562;10.038;2023-04-02T01:04:28;101630.72;;;2.80;69.96
29941;BME280;16801;53.562;10.038;2023-04-02T01:07:59;101642.72;;;2.83;69.60
29941;BME280;16801;53.562;10.038;2023-04-02T01:11:35;101648.47;;;2.88;70.43
29941;BME280;16801;53.562;10.038;2023-04-02T01:15:05;101649.84;;;2.93;69.94
29941;BME280;16801;53.562;10.038;2023-04-02T01:18:37;101653.91;;;2.97;69.65
29941;BME280;16801;53.562;10.038;2023-04-02T01:22:06;101655.38;;;3.01;69.58
29941;BME280;16801;53.562;10.038;2023-04-02T01:25:39;101662.75;;;2.95;70.04
29941;BME280;16801;53.562;10.038;2023-04-02T01:29:08;101671.84;;;2.89;70.57
29941;BME280;16801;53.562;10.038;2023-04-02T01:32:30;101683.00;;;2.91;70.10
29941;BME280;16801;53.562;10.038;2023-04-02T01:35:55;101677.53;;;2.82;69.67
29941;BME280;16801;53.562;10.038;2023-04-02T01:39:28;101689.75;;;2.81;69.83
29941;BME280;16801;53.562;10.038;2023-04-02T01:42:58;101691.78;;;2.76;70.51
29941;BME280;16801;53.562;10.038;2023-04-02T01:46:26;101684.06;;;2.74;69.65
29941;BME280;16801;53.562;10.038;2023-04-02T01:49:48;101702.63;;;2.70;68.72
29941;BME280;16801;53.562;10.038;2023-04-02T01:53:11;101706.91;;;2.71;68.48
29941;BME280;16801;53.562;10.038;2023-04-02T01:56:33;101704.91;;;2.74;67.67
29941;BME280;16801;53.562;10.038;2023-04-02T01:59:54;101712.56;;;2.78;68.11
29941;BME280;16801;53.562;10.038;2023-04-02T02:03:18;101710.41;;;2.84;67.58
29941;BME280;16801;53.562;10.038;2023-04-02T02:06:39;101712.91;;;2.86;67.48
29941;BME280;16801;53.562;10.038;2023-04-02T02:10:01;101728.28;;;2.90;67.23
29941;BME280;16801;53.562;10.038;2023-04-02T02:13:21;101739.06;;;2.84;66.41
29941;BME280;16801;53.562;10.038;2023-04-02T02:16:44;101731.81;;;2.89;67.75
29941;BME280;16801;53.562;10.038;2023-04-02T02:20:08;101741.31;;;2.90;67.69
29941;BME280;16801;53.562;10.038;2023-04-02T02:23:29;101740.19;;;2.80;66.93
29941;BME280;16801;53.562;10.038;2023-04-02T02:27:02;101748.94;;;2.79;66.96
29941;BME280;16801;53.562;10.038;2023-04-02T02:30:27;101747.69;;;2.58;67.85
29941;BME280;16801;53.562;10.038;2023-04-02T02:33:51;101758.56;;;2.50;68.90
29941;BME280;16801;53.562;10.038;2023-04-02T02:37:21;101755.41;;;2.59;69.13
29941;BME280;16801;53.562;10.038;2023-04-02T02:40:44;101767.97;;;2.67;69.12
29941;BME280;16801;53.562;10.038;2023-04-02T02:44:13;101769.34;;;2.72;68.76
29941;BME280;16801;53.562;10.038;2023-04-02T02:47:36;101781.38;;;2.61;68.57
29941;BME280;16801;53.562;10.038;2023-04-02T02:51:06;101779.25;;;2.67;69.27
29941;BME280;16801;53.562;10.038;2023-04-02T02:54:31;101788.09;;;2.65;69.00
29941;BME280;16801;53.562;10.038;2023-04-02T02:57:57;101796.28;;;2.59;69.24
29941;BME280;16801;53.562;10.038;2023-04-02T03:01:23;101802.50;;;2.56;69.35
29941;BME280;16801;53.562;10.038;2023-04-02T03:04:49;101806.78;;;2.57;69.48
29941;BME280;16801;53.562;10.038;2023-04-02T03:08:16;101818.69;;;2.61;69.69
29941;BME280;16801;53.562;10.038;2023-04-02T03:11:44;101818.63;;;2.63;69.57
29941;BME280;16801;53.562;10.038;2023-04-02T03:15:22;101824.09;;;2.58;69.91
29941;BME280;16801;53.562;10.038;2023-04-02T03:18:51;101833.03;;;2.54;70.56
29941;BME280;16801;53.562;10.038;2023-04-02T03:22:18;101839.56;;;2.47;69.87
29941;BME280;16801;53.562;10.038;2023-04-02T03:25:44;101846.81;;;2.42;71.17
29941;BME280;16801;53.562;10.038;2023-04-02T03:29:14;101846.63;;;2.45;70.79
29941;BME280;16801;53.562;10.038;2023-04-02T03:32:37;101858.81;;;2.45;70.92
29941;BME280;16801;53.562;10.038;2023-04-02T03:36:06;101857.13;;;2.44;71.15
29941;BME280;16801;53.562;10.038;2023-04-02T03:39:36;101872.13;;;2.54;71.08
29941;BME280;16801;53.562;10.038;2023-04-02T03:43:03;101881.63;;;2.55;71.01
29941;BME280;16801;53.562;10.038;2023-04-02T03:46:36;101878.25;;;2.53;70.87
29941;BME280;16801;53.562;10.038;2023-04-02T03:50:00;101888.69;;;2.53;70.42
29941;BME280;16801;53.562;10.038;2023-04-02T03:53:24;101893.44;;;2.47;70.92
29941;BME280;16801;53.562;10.038;2023-04-02T03:56:46;101905.91;;;2.56;71.36
29941;BME280;16801;53.562;10.038;2023-04-02T04:00:18;101906.31;;;2.64;70.80
29941;BME280;16801;53.562;10.038;2023-04-02T04:03:51;101910.28;;;2.55;70.22
29941;BME280;16801;53.562;10.038;2023-04-02T04:07:20;101914.47;;;2.44;70.57
29941;BME280;16801;53.562;10.038;2023-04-02T04:10:42;101933.97;;;2.36;70.45
29941;BME280;16801;53.562;10.038;2023-04-02T04:14:08;101934.81;;;2.37;71.16
29941;BME280;16801;53.562;10.038;2023-04-02T04:17:36;101939.19;;;2.36;71.01
29941;BME280;16801;53.562;10.038;2023-04-02T04:21:04;101945.41;;;2.34;71.74
29941;BME280;16801;53.562;10.038;2023-04-02T04:24:33;101942.00;;;2.18;71.19
29941;BME280;16801;53.562;10.038;2023-04-02T04:28:08;101949.41;;;2.25;71.32
29941;BME280;16801;53.562;10.038;2023-04-02T04:31:35;101955.75;;;2.35;71.74
29941;BME280;16801;53.562;10.038;2023-04-02T04:35:04;101957.00;;;2.44;70.71
29941;BME280;16801;53.562;10.038;2023-04-02T04:38:31;101966.00;;;2.38;70.77
29941;BME280;16801;53.562;10.038;2023-04-02T04:41:56;101973.63;;;2.42;70.38
29941;BME280;16801;53.562;10.038;2023-04-02T04:45:30;101968.50;;;2.40;70.88
29941;BME280;16801;53.562;10.038;2023-04-02T04:48:59;101972.38;;;2.33;70.51
29941;BME280;16801;53.562;10.038;2023-04-02T04:52:25;101981.53;;;2.40;70.74
29941;BME280;16801;53.562;10.038;2023-04-02T04:55:53;101996.16;;;2.43;70.38
29941;BME280;16801;53.562;10.038;2023-04-02T04:59:20;102005.81;;;2.40;69.91
29941;BME280;16801;53.562;10.038;2023-04-02T05:02:46;102006.22;;;2.49;70.97
29941;BME280;16801;53.562;10.038;2023-04-02T05:06:16;102012.25;;;2.65;70.25
29941;BME280;16801;53.562;10.038;2023-04-02T05:09:41;102017.88;;;2.57;69.74
29941;BME280;16801;53.562;10.038;2023-04-02T05:13:13;102028.75;;;2.80;69.98
29941;BME280;16801;53.562;10.038;2023-04-02T05:16:40;102037.25;;;2.97;69.25
29941;BME280;16801;53.562;10.038;2023-04-02T05:20:10;102042.88;;;3.05;68.96
29941;BME280;16801;53.562;10.038;2023-04-02T05:23:44;102045.41;;;3.21;67.73
29941;BME280;16801;53.562;10.038;2023-04-02T05:27:16;102056.03;;;3.32;67.37
29941;BME280;16801;53.562;10.038;2023-04-02T05:30:46;102052.59;;;3.32;67.05
29941;BME280;16801;53.562;10.038;2023-04-02T05:34:13;102056.31;;;3.28;67.17
29941;BME280;16801;53.562;10.038;2023-04-02T05:37:41;102070.13;;;3.30;67.36
29941;BME280;16801;53.562;10.038;2023-04-02T05:41:05;102073.25;;;3.21;67.11
29941;BME280;16801;53.562;10.038;2023-04-02T05:44:30;102074.75;;;3.39;68.01
29941;BME280;16801;53.562;10.038;2023-04-02T05:47:55;102077.28;;;3.40;67.12
29941;BME280;16801;53.562;10.038;2023-04-02T05:51:25;102089.31;;;3.43;67.51
29941;BME280;16801;53.562;10.038;2023-04-02T05:54:52;102089.31;;;3.43;66.80
29941;BME280;16801;53.562;10.038;2023-04-02T05:58:21;102088.03;;;3.50;66.74
29941;BME280;16801;53.562;10.038;2023-04-02T06:01:47;102087.47;;;3.59;66.99
29941;BME280;16801;53.562;10.038;2023-04-02T06:05:23;102096.81;;;3.77;66.93
29941;BME280;16801;53.562;10.038;2023-04-02T06:08:50;102098.91;;;3.85;66.50
29941;BME280;16801;53.562;10.038;2023-04-02T06:12:18;102100.13;;;3.94;65.90
29941;BME280;16801;53.562;10.038;2023-04-02T06:15:42;102109.19;;;4.02;65.94
29941;BME280;16801;53.562;10.038;2023-04-02T06:19:16;102119.06;;;4.26;64.97
29941;BME280;16801;53.562;10.038;2023-04-02T06:22:42;102121.06;;;4.35;64.79
29941;BME280;16801;53.562;10.038;2023-04-02T06:26:15;102125.25;;;4.37;64.28
29941;BME280;16801;53.562;10.038;2023-04-02T06:29:41;102129.84;;;4.34;64.45
29941;BME280;16801;53.562;10.038;2023-04-02T06:33:08;102132.91;;;4.40;64.39
29941;BME280;16801;53.562;10.038;2023-04-02T06:36:32;102135.06;;;4.48;63.73
29941;BME280;16801;53.562;10.038;2023-04-02T06:40:00;102145.56;;;4.61;63.89
29941;BME280;16801;53.562;10.038;2023-04-02T06:43:26;102149.84;;;4.62;63.79
29941;BME280;16801;53.562;10.038;2023-04-02T06:47:10;102161.50;;;4.70;63.41
29941;BME280;16801;53.562;10.038;2023-04-02T06:50:43;102157.63;;;4.76;63.17
29941;BME280;16801;53.562;10.038;2023-04-02T06:54:06;102170.50;;;4.93;62.82
29941;BME280;16801;53.562;10.038;2023-04-02T06:57:34;102176.09;;;5.14;61.87
29941;BME280;16801;53.562;10.038;2023-04-02T07:00:55;102180.75;;;5.36;61.72
29941;BME280;16801;53.562;10.038;2023-04-02T07:04:28;102200.63;;;5.26;60.37
29941;BME280;16801;53.562;10.038;2023-04-02T07:07:50;102190.50;;;5.34;60.32
29941;BME280;16801;53.562;10.038;2023-04-02T07:11:13;102191.28;;;5.61;59.50
29941;BME280;16801;53.562;10.038;2023-04-02T07:14:35;102207.91;;;5.47;59.52
29941;BME280;16801;53.562;10.038;2023-04-02T07:17:57;102199.09;;;5.36;59.42
29941;BME280;16801;53.562;10.038;2023-04-02T07:21:18;102205.91;;;5.51;58.75
29941;BME280;16801;53.562;10.038;2023-04-02T07:24:39;102209.81;;;5.71;59.35
29941;BME280;16801;53.562;10.038;2023-04-02T07:28:00;102218.50;;;5.71;59.07
29941;BME280;16801;53.562;10.038;2023-04-02T07:31:24;102221.72;;;6.02;58.17
29941;BME280;16801;53.562;10.038;2023-04-02T07:34:45;102227.38;;;5.96;56.82
29941;BME280;16801;53.562;10.038;2023-04-02T07:38:08;102228.94;;;5.98;57.84
29941;BME280;16801;53.562;10.038;2023-04-02T07:41:29;102235.25;;;6.08;56.56
29941;BME280;16801;53.562;10.038;2023-04-02T07:44:50;102246.97;;;6.15;55.86
29941;BME280;16801;53.562;10.038;2023-04-02T07:48:13;102251.88;;;6.45;55.47
29941;BME280;16801;53.562;10.038;2023-04-02T07:51:34;102261.22;;;6.49;54.72
29941;BME280;16801;53.562;10.038;2023-04-02T07:54:56;102256.59;;;6.40;54.86
29941;BME280;16801;53.562;10.038;2023-04-02T07:58:16;102263.53;;;6.41;55.30
29941;BME280;16801;53.562;10.038;2023-04-02T08:01:37;102275.28;;;6.36;55.19
29941;BME280;16801;53.562;10.038;2023-04-02T08:04:59;102278.94;;;6.33;55.24
29941;BME280;16801;53.562;10.038;2023-04-02T08:08:22;102285.53;;;6.64;54.79
29941;BME280;16801;53.562;10.038;2023-04-02T08:11:43;102281.31;;;6.74;53.98
29941;BME280;16801;53.562;10.038;2023-04-02T08:15:06;102286.25;;;6.66;54.50
29941;BME280;16801;53.562;10.038;2023-04-02T08:18:27;102293.41;;;6.64;54.26
29941;BME280;16801;53.562;10.038;2023-04-02T08:21:50;102298.66;;;6.39;53.41
29941;BME280;16801;53.562;10.038;2023-04-02T08:25:12;102307.47;;;6.63;53.66
29941;BME280;16801;53.562;10.038;2023-04-02T08:28:33;102306.84;;;6.47;54.06
29941;BME280;16801;53.562;10.038;2023-04-02T08:31:53;102321.84;;;6.58;54.14
29941;BME280;16801;53.562;10.038;2023-04-02T08:35:15;102301.13;;;6.78;53.13
29941;BME280;16801;53.562;10.038;2023-04-02T08:38:38;102311.47;;;7.05;53.31
29941;BME280;16801;53.562;10.038;2023-04-02T08:42:02;102311.72;;;7.26;54.10
29941;BME280;16801;53.562;10.038;2023-04-02T08:45:34;102327.88;;;7.33;53.23
29941;BME280;16801;53.562;10.038;2023-04-02T08:49:01;102337.84;;;7.40;49.45
29941;BME280;16801;53.562;10.038;2023-04-02T08:52:26;102337.50;;;7.45;49.63
29941;BME280;16801;53.562;10.038;2023-04-02T08:55:54;102349.22;;;7.28;49.34
29941;BME280;16801;53.562;10.038;2023-04-02T08:59:24;102348.38;;;7.51;54.53
29941;BME280;16801;53.562;10.038;2023-04-02T09:02:51;102350.69;;;7.56;52.42
29941;BME280;16801;53.562;10.038;2023-04-02T09:06:17;102350.53;;;8.05;57.29
29941;BME280;16801;53.562;10.038;2023-04-02T09:09:39;102363.88;;;8.37;50.41
29941;BME280;16801;53.562;10.038;2023-04-02T09:13:02;102369.22;;;8.71;50.49
29941;BME280;16801;53.562;10.038;2023-04-02T09:16:38;102367.06;;;8.76;51.88
29941;BME280;16801;53.562;10.038;2023-04-02T09:20:12;102378.63;;;9.29;58.02
29941;BME280;16801;53.562;10.038;2023-04-02T09:23:35;102378.63;;;10.04;46.57
29941;BME280;16801;53.562;10.038;2023-04-02T09:26:56;102371.59;;;8.85;45.85
29941;BME280;16801;53.562;10.038;2023-04-02T09:30:28;102381.19;;;8.75;45.65
29941;BME280;16801;53.562;10.038;2023-04-02T09:33:52;102385.31;;;8.44;45.25
29941;BME280;16801;53.562;10.038;2023-04-02T09:37:16;102390.47;;;8.45;46.78
29941;BME280;16801;53.562;10.038;2023-04-02T09:40:43;102396.69;;;8.33;45.01
29941;BME280;16801;53.562;10.038;2023-04-02T09:44:27;102395.72;;;8.45;45.30
29941;BME280;16801;53.562;10.038;2023-04-02T09:47:51;102394.56;;;8.26;43.66
29941;BME280;16801;53.562;10.038;2023-04-02T09:51:15;102397.13;;;8.38;45.50
29941;BME280;16801;53.562;10.038;2023-04-02T09:54:37;102395.50;;;8.60;45.82
29941;BME280;16801;53.562;10.038;2023-04-02T09:58:11;102408.94;;;8.68;44.19
29941;BME280;16801;53.562;10.038;2023-04-02T10:01:33;102419.97;;;8.95;45.03
29941;BME280;16801;53.562;10.038;2023-04-02T10:05:01;102413.97;;;9.04;45.66
29941;BME280;16801;53.562;10.038;2023-04-02T10:08:25;102414.69;;;9.17;43.97
29941;BME280;16801;53.562;10.038;2023-04-02T10:11:47;102419.25;;;9.15;43.06
29941;BME280;16801;53.562;10.038;2023-04-02T10:15:13;102416.97;;;9.11;43.09
29941;BME280;16801;53.562;10.038;2023-04-02T10:18:40;102436.81;;;9.59;43.33
29941;BME280;16801;53.562;10.038;2023-04-02T10:22:05;102444.97;;;9.45;40.71
29941;BME280;16801;53.562;10.038;2023-04-02T10:25:39;102441.84;;;9.51;40.63
29941;BME280;16801;53.562;10.038;2023-04-02T10:29:14;102436.25;;;9.22;41.18
29941;BME280;16801;53.562;10.038;2023-04-02T10:32:43;102460.31;;;9.94;41.82
29941;BME280;16801;53.562;10.038;2023-04-02T10:36:10;102459.22;;;9.65;40.77
29941;BME280;16801;53.562;10.038;2023-04-02T10:39:34;102467.84;;;9.99;41.83
29941;BME280;16801;53.562;10.038;2023-04-02T10:43:16;102473.94;;;10.11;40.70
29941;BME280;16801;53.562;10.038;2023-04-02T10:46:49;102474.63;;;10.56;40.94
29941;BME280;16801;53.562;10.038;2023-04-02T10:50:25;102488.75;;;10.34;40.91
29941;BME280;16801;53.562;10.038;2023-04-02T10:53:53;102498.19;;;10.05;41.37
29941;BME280;16801;53.562;10.038;2023-04-02T10:57:26;102491.75;;;11.03;40.98
29941;BME280;16801;53.562;10.038;2023-04-02T11:00:49;102496.72;;;11.67;48.06
29941;BME280;16801;53.562;10.038;2023-04-02T11:04:18;102503.09;;;12.24;40.39
29941;BME280;16801;53.562;10.038;2023-04-02T11:07:52;102503.09;;;12.72;41.20
29941;BME280;16801;53.562;10.038;2023-04-02T11:11:17;102499.50;;;14.37;37.34
29941;BME280;16801;53.562;10.038;2023-04-02T11:14:41;102492.38;;;18.45;28.95
29941;BME280;16801;53.562;10.038;2023-04-02T11:18:02;102499.47;;;22.81;21.50
29941;BME280;16801;53.562;10.038;2023-04-02T11:21:40;102480.84;;;24.70;18.09
29941;BME280;16801;53.562;10.038;2023-04-02T11:25:02;102489.41;;;20.24;20.42
29941;BME280;16801;53.562;10.038;2023-04-02T11:28:26;102512.44;;;14.68;28.17
29941;BME280;16801;53.562;10.038;2023-04-02T11:35:37;102515.78;;;22.60;18.04
29941;BME280;16801;53.562;10.038;2023-04-02T11:39:03;102513.00;;;23.33;16.75
29941;BME280;16801;53.562;10.038;2023-04-02T11:42:27;102521.03;;;23.97;16.02
29941;BME280;16801;53.562;10.038;2023-04-02T11:45:53;102522.25;;;24.39;15.60
29941;BME280;16801;53.562;10.038;2023-04-02T11:49:33;102525.88;;;26.92;13.78
29941;BME280;16801;53.562;10.038;2023-04-02T11:52:57;102536.53;;;25.14;14.03
29941;BME280;16801;53.562;10.038;2023-04-02T11:56:26;102539.78;;;24.80;15.13
29941;BME280;16801;53.562;10.038;2023-04-02T12:00:00;102529.53;;;26.10;12.89
29941;BME280;16801;53.562;10.038;2023-04-02T12:07:39;102545.31;;;23.59;15.03
29941;BME280;16801;53.562;10.038;2023-04-02T12:11:10;102557.47;;;23.75;14.66
29941;BME280;16801;53.562;10.038;2023-04-02T12:14:41;102558.09;;;25.58;14.12
29941;BME280;16801;53.562;10.038;2023-04-02T12:18:12;102562.00;;;25.43;13.90
29941;BME280;16801;53.562;10.038;2023-04-02T12:21:34;102563.97;;;27.21;12.56
29941;BME280;16801;53.562;10.038;2023-04-02T12:24:58;102570.91;;;24.19;14.26
29941;BME280;16801;53.562;10.038;2023-04-02T12:28:20;102568.47;;;25.24;14.05
29941;BME280;16801;53.562;10.038;2023-04-02T12:31:42;102577.28;;;24.95;15.69
29941;BME280;16801;53.562;10.038;2023-04-02T12:35:04;102576.19;;;27.47;12.64
29941;BME280;16801;53.562;10.038;2023-04-02T12:38:27;102574.69;;;27.16;12.51
29941;BME280;16801;53.562;10.038;2023-04-02T12:41:51;102573.75;;;27.85;14.23
29941;BME280;16801;53.562;10.038;2023-04-02T12:45:21;102570.31;;;26.27;13.33
29941;BME280;16801;53.562;10.038;2023-04-02T12:48:43;102574.97;;;27.78;12.88
29941;BME280;16801;53.562;10.038;2023-04-02T12:52:05;102570.31;;;27.38;13.20
29941;BME280;16801;53.562;10.038;2023-04-02T12:55:28;102574.88;;;26.68;13.55
29941;BME280;16801;53.562;10.038;2023-04-02T12:58:53;102567.53;;;26.98;14.07
29941;BME280;16801;53.562;10.038;2023-04-02T13:02:17;102554.69;;;28.25;13.91
29941;BME280;16801;53.562;10.038;2023-04-02T13:05:40;102570.06;;;26.93;13.70
29941;BME280;16801;53.562;10.038;2023-04-02T13:09:05;102575.53;;;25.43;16.25
29941;BME280;16801;53.562;10.038;2023-04-02T13:12:31;102590.47;;;22.18;19.21
29941;BME280;16801;53.562;10.038;2023-04-02T13:16:03;102611.81;;;20.46;21.12
29941;BME280;16801;53.562;10.038;2023-04-02T13:19:27;102606.44;;;25.11;16.29
29941;BME280;16801;53.562;10.038;2023-04-02T13:22:48;102605.25;;;24.75;15.27
29941;BME280;16801;53.562;10.038;2023-04-02T13:26:14;102594.69;;;25.42;15.72
29941;BME280;16801;53.562;10.038;2023-04-02T13:29:36;102610.06;;;26.14;15.47
29941;BME280;16801;53.562;10.038;2023-04-02T13:32:58;102602.81;;;23.13;17.55
29941;BME280;16801;53.562;10.038;2023-04-02T13:36:19;102612.78;;;18.83;24.19
29941;BME280;16801;53.562;10.038;2023-04-02T13:39:40;102598.53;;;24.21;17.90
29941;BME280;16801;53.562;10.038;2023-04-02T13:43:01;102607.09;;;24.50;17.00
29941;BME280;16801;53.562;10.038;2023-04-02T13:46:24;102615.69;;;20.86;20.04
29941;BME280;16801;53.562;10.038;2023-04-02T13:49:46;102606.91;;;21.96;19.73
29941;BME280;16801;53.562;10.038;2023-04-02T13:53:12;102615.72;;;22.17;18.06
29941;BME280;16801;53.562;10.038;2023-04-02T13:56:34;102608.25;;;23.91;16.99
29941;BME280;16801;53.562;10.038;2023-04-02T13:59:55;102621.69;;;23.27;18.25
29941;BME280;16801;53.562;10.038;2023-04-02T14:03:18;102637.78;;;22.74;18.43
29941;BME280;16801;53.562;10.038;2023-04-02T14:10:44;102630.59;;;23.01;17.60
29941;BME280;16801;53.562;10.038;2023-04-02T14:18:13;102643.38;;;21.64;19.45
29941;BME280;16801;53.562;10.038;2023-04-02T14:21:48;102652.94;;;16.52;26.15
29941;BME280;16801;53.562;10.038;2023-04-02T14:25:16;102659.25;;;14.52;29.40
29941;BME280;16801;53.562;10.038;2023-04-02T14:28:49;102662.50;;;13.91;31.41
29941;BME280;16801;53.562;10.038;2023-04-02T14:32:20;102657.03;;;15.88;29.31
29941;BME280;16801;53.562;10.038;2023-04-02T14:35:45;102663.84;;;16.75;27.88
29941;BME280;16801;53.562;10.038;2023-04-02T14:39:12;102665.81;;;14.93;30.20
29941;BME280;16801;53.562;10.038;2023-04-02T14:42:40;102686.88;;;13.58;33.27
29941;BME280;16801;53.562;10.038;2023-04-02T14:46:05;102693.34;;;13.55;32.87
29941;BME280;16801;53.562;10.038;2023-04-02T14:49:29;102688.16;;;15.00;30.90
29941;BME280;16801;53.562;10.038;2023-04-02T14:52:55;102690.19;;;14.71;30.97
29941;BME280;16801;53.562;10.038;2023-04-02T14:56:20;102689.56;;;14.42;32.42
29941;BME280;16801;53.562;10.038;2023-04-02T14:59:51;102690.88;;;14.18;32.48
29941;BME280;16801;53.562;10.038;2023-04-02T15:03:20;102697.72;;;14.21;32.05
29941;BME280;16801;53.562;10.038;2023-04-02T15:06:44;102705.63;;;13.08;34.59
29941;BME280;16801;53.562;10.038;2023-04-02T15:10:13;102701.97;;;12.90;35.40
29941;BME280;16801;53.562;10.038;2023-04-02T15:13:42;102713.59;;;12.39;35.69
29941;BME280;16801;53.562;10.038;2023-04-02T15:17:05;102714.38;;;12.30;36.88
29941;BME280;16801;53.562;10.038;2023-04-02T15:20:32;102709.06;;;12.89;35.70
29941;BME280;16801;53.562;10.038;2023-04-02T15:24:01;102712.06;;;13.25;33.26
29941;BME280;16801;53.562;10.038;2023-04-02T15:27:35;102704.47;;;14.06;33.31
29941;BME280;16801;53.562;10.038;2023-04-02T15:31:04;102710.84;;;13.95;32.80
29941;BME280;16801;53.562;10.038;2023-04-02T15:34:29;102723.75;;;12.84;34.94
29941;BME280;16801;53.562;10.038;2023-04-02T15:37:57;102736.97;;;12.04;36.06
29941;BME280;16801;53.562;10.038;2023-04-02T15:41:21;102741.44;;;12.03;37.09
29941;BME280;16801;53.562;10.038;2023-04-02T15:44:56;102742.38;;;11.40;37.88
29941;BME280;16801;53.562;10.038;2023-04-02T15:48:43;102743.63;;;11.98;37.48
29941;BME280;16801;53.562;10.038;2023-04-02T15:52:11;102746.03;;;12.81;35.38
29941;BME280;16801;53.562;10.038;2023-04-02T15:55:38;102766.44;;;11.89;36.38
29941;BME280;16801;53.562;10.038;2023-04-02T15:59:26;102758.16;;;12.04;36.14
29941;BME280;16801;53.562;10.038;2023-04-02T16:06:59;102758.88;;;12.36;34.29
29941;BME280;16801;53.562;10.038;2023-04-02T16:10:23;102760.31;;;12.50;34.65
29941;BME280;16801;53.562;10.038;2023-04-02T16:13:48;102764.03;;;12.38;35.00
29941;BME280;16801;53.562;10.038;2023-04-02T16:17:14;102777.16;;;12.39;34.38
29941;BME280;16801;53.562;10.038;2023-04-02T16:20:38;102785.44;;;12.25;34.28
29941;BME280;16801;53.562;10.038;2023-04-02T16:24:05;102786.75;;;12.10;33.59
29941;BME280;16801;53.562;10.038;2023-04-02T16:27:33;102786.38;;;11.93;33.63
29941;BME280;16801;53.562;10.038;2023-04-02T16:30:58;102796.09;;;12.35;35.09
29941;BME280;16801;53.562;10.038;2023-04-02T16:34:31;102795.94;;;12.36;34.98
29941;BME280;16801;53.562;10.038;2023-04-02T16:37:58;102803.16;;;12.04;32.62
29941;BME280;16801;53.562;10.038;2023-04-02T16:41:31;102804.38;;;11.99;34.11
29941;BME280;16801;53.562;10.038;2023-04-02T16:45:07;102813.84;;;11.81;33.28
29941;BME280;16801;53.562;10.038;2023-04-02T16:48:37;102819.72;;;12.26;37.44
29941;BME280;16801;53.562;10.038;2023-04-02T16:52:11;102825.97;;;12.25;34.09
29941;BME280;16801;53.562;10.038;2023-04-02T16:55:45;102823.34;;;11.52;32.97
29941;BME280;16801;53.562;10.038;2023-04-02T16:59:18;102836.28;;;11.23;33.62
29941;BME280;16801;53.562;10.038;2023-04-02T17:02:50;102851.19;;;11.13;34.42
29941;BME280;16801;53.562;10.038;2023-04-02T17:06:20;102854.38;;;10.84;34.51
29941;BME280;16801;53.562;10.038;2023-04-02T17:09:48;102866.94;;;10.47;35.40
29941;BME280;16801;53.562;10.038;2023-04-02T17:13:17;102869.22;;;10.06;36.66
29941;BME280;16801;53.562;10.038;2023-04-02T17:16:41;102874.50;;;9.71;37.61
29941;BME280;16801;53.562;10.038;2023-04-02T17:20:08;102877.69;;;9.63;38.47
29941;BME280;16801;53.562;10.038;2023-04-02T17:23:43;102886.47;;;9.51;38.88
29941;BME280;16801;53.562;10.038;2023-04-02T17:27:11;102888.38;;;9.49;39.37
29941;BME280;16801;53.562;10.038;2023-04-02T17:30:37;102900.03;;;9.34;39.93
29941;BME280;16801;53.562;10.038;2023-04-02T17:34:10;102899.78;;;9.13;40.72
29941;BME280;16801;53.562;10.038;2023-04-02T17:37:36;102909.41;;;9.01;40.73
29941;BME280;16801;53.562;10.038;2023-04-02T17:41:04;102919.84;;;9.03;40.91
29941;BME280;16801;53.562;10.038;2023-04-02T17:44:40;102923.63;;;8.86;41.66
29941;BME280;16801;53.562;10.038;2023-04-02T17:48:06;102931.94;;;9.18;41.33
29941;BME280;16801;53.562;10.038;2023-04-02T17:51:34;102936.69;;;8.87;42.16
29941;BME280;16801;53.562;10.038;2023-04-02T17:55:06;102941.84;;;8.64;42.35
29941;BME280;16801;53.562;10.038;2023-04-02T17:58:48;102944.78;;;8.59;43.47
29941;BME280;16801;53.562;10.038;2023-04-02T18:02:24;102961.56;;;8.58;43.70
29941;BME280;16801;53.562;10.038;2023-04-02T18:05:53;102967.44;;;8.62;43.22
29941;BME280;16801;53.562;10.038;2023-04-02T18:09:25;102961.72;;;8.42;44.56
29941;BME280;16801;53.562;10.038;2023-04-02T18:12:56;102971.84;;;8.36;43.90
29941;BME280;16801;53.562;10.038;2023-04-02T18:16:31;102980.69;;;8.20;44.55